Terminal Aerodrome Forecast
Issued by NWS

Home | Current Version | Previous Version | Text Only | Print | Product List | Glossary On
Versions: 1 2 3 4 5 6 7 8 9 10 11 12 13 14 15 16
000
FTUS42 KJAX 011200 AAA
TAFVQQ
TAF AMD
KVQQ 011217Z 0112/0212 00000KT 6SM BR FEW060 BKN250
      TEMPO 0112/0113 3SM BR SCT002
     FM011400 23004KT P6SM FEW030 SCT250
     FM012000 12007KT P6SM VCTS BKN040CB BKN250
     FM020200 14003KT P6SM SCT050 SCT250=

USA.gov is the U.S. government's official web portal to all federal, state and local government web resources and services.